Time;durP1;ratioP1;P1;durP2;ratioP2;P2;SDS_P1;SDS_P2;PMS_P1;PMS_P2;Temp;Humidity;BMP_temperature;BMP_pressure;BME280_temperature;BME280_humidity;BME280_pressure;Samples;Min_cycle;Max_cycle;Signal;HPM_P1;HPM_P2
2022/08/17 00:01:55;;;;;;;;;;;29.90;49.40;;;;;;5098181;28;19920;-62
2022/08/17 00:04:20;;;;;;;;;;;29.80;49.40;;;;;;5111321;28;19916;-61
2022/08/17 00:06:46;;;;;;;;;;;29.90;50.20;;;;;;5111460;28;19998;-61
2022/08/17 00:09:11;;;;;;;;;;;29.80;49.40;;;;;;5112219;28;20373;-61
2022/08/17 00:11:38;;;;;;;;;;;29.90;49.30;;;;;;5095550;28;19908;-61
2022/08/17 00:14:04;;;;;;;;;;;29.90;49.40;;;;;;5088061;28;19924;-61
2022/08/17 00:16:31;;;;;;;;;;;29.80;49.40;;;;;;5105700;28;19912;-61
2022/08/17 00:18:57;;;;;;;;;;;29.80;49.40;;;;;;5112014;28;19912;-61
2022/08/17 00:21:23;;;;;;;;;;;29.80;49.50;;;;;;5108408;28;19922;-61
2022/08/17 00:23:49;;;;;;;;;;;29.80;50.30;;;;;;5088752;28;19912;-61
2022/08/17 00:26:14;;;;;;;;;;;29.80;49.50;;;;;;5093367;28;19917;-61
2022/08/17 00:28:40;;;;;;;;;;;29.80;49.50;;;;;;5110342;28;19923;-60
2022/08/17 00:31:06;;;;;;;;;;;29.80;49.70;;;;;;5105740;28;19919;-61
2022/08/17 00:33:32;;;;;;;;;;;29.80;49.80;;;;;;5111168;28;19912;-61
2022/08/17 00:35:57;;;;;;;;;;;29.80;49.70;;;;;;5113261;28;19908;-61
2022/08/17 00:38:23;;;;;;;;;;;29.80;49.70;;;;;;5111478;28;20091;-61
2022/08/17 00:40:50;;;;;;;;;;;29.80;49.90;;;;;;5094152;28;19935;-61
2022/08/17 00:43:17;;;;;;;;;;;29.80;49.80;;;;;;5093751;28;20294;-61
2022/08/17 00:45:43;;;;;;;;;;;29.80;49.90;;;;;;5109331;28;19928;-61
2022/08/17 00:48:08;;;;;;;;;;;29.80;49.80;;;;;;5107727;28;19931;-61
2022/08/17 00:50:34;;;;;;;;;;;29.80;49.60;;;;;;5093474;28;19973;-61
2022/08/17 00:52:59;;;;;;;;;;;29.80;49.50;;;;;;5094455;28;19911;-61
2022/08/17 00:55:25;;;;;;;;;;;29.80;49.80;;;;;;5109705;28;19947;-61
2022/08/17 00:57:52;;;;;;;;;;;29.80;49.80;;;;;;5094825;28;19908;-61
2022/08/17 01:00:20;;;;;;;;;;;29.70;49.90;;;;;;5111475;28;19915;-61
2022/08/17 01:02:45;;;;;;;;;;;29.70;49.60;;;;;;5089551;28;20011;-61
2022/08/17 01:05:16;;;;;;;;;;;29.70;49.90;;;;;;5093620;28;20010;-61
2022/08/17 01:07:42;;;;;;;;;;;29.60;50.20;;;;;;5084333;28;19912;-61
2022/08/17 01:10:07;;;;;;;;;;;29.60;50.30;;;;;;5093541;28;20002;-61
2022/08/17 01:12:33;;;;;;;;;;;29.60;50.20;;;;;;5076131;28;19918;-61
2022/08/17 01:14:59;;;;;;;;;;;29.60;50.40;;;;;;5111598;28;19931;-61
2022/08/17 01:17:26;;;;;;;;;;;29.60;50.20;;;;;;5110451;28;19961;-61
2022/08/17 01:19:51;;;;;;;;;;;29.60;50.30;;;;;;5108314;28;20394;-61
2022/08/17 01:22:23;;;;;;;;;;;29.60;50.30;;;;;;5111067;28;19916;-60
2022/08/17 01:24:57;;;;;;;;;;;29.60;50.30;;;;;;5108966;28;19912;-61
2022/08/17 01:27:23;;;;;;;;;;;29.60;50.20;;;;;;5104948;28;19912;-61
2022/08/17 01:29:50;;;;;;;;;;;29.60;50.30;;;;;;5091934;28;19922;-61
2022/08/17 01:32:16;;;;;;;;;;;29.60;50.10;;;;;;5111742;28;19912;-61
2022/08/17 01:34:42;;;;;;;;;;;29.60;50.30;;;;;;5104964;28;19916;-61
2022/08/17 01:37:07;;;;;;;;;;;29.50;50.60;;;;;;5108282;28;19912;-60
2022/08/17 01:39:40;;;;;;;;;;;29.50;50.40;;;;;;5092277;28;19919;-61
2022/08/17 01:42:22;;;;;;;;;;;29.50;50.60;;;;;;5111255;28;19916;-61
2022/08/17 01:44:48;;;;;;;;;;;29.50;50.70;;;;;;5111552;28;20012;-61
2022/08/17 01:47:13;;;;;;;;;;;29.50;50.70;;;;;;5094343;28;19918;-60
2022/08/17 01:49:39;;;;;;;;;;;29.50;50.60;;;;;;5109864;28;19916;-61
2022/08/17 01:52:06;;;;;;;;;;;29.50;50.70;;;;;;5107216;28;19951;-61
2022/08/17 01:54:31;;;;;;;;;;;29.50;50.70;;;;;;5110745;28;19916;-61
2022/08/17 01:56:57;;;;;;;;;;;29.60;50.50;;;;;;5091512;28;19918;-61
2022/08/17 01:59:22;;;;;;;;;;;29.60;50.50;;;;;;5110303;28;19951;-61
2022/08/17 02:01:47;;;;;;;;;;;29.60;50.50;;;;;;5110563;28;19992;-61
2022/08/17 02:04:13;;;;;;;;;;;29.60;50.60;;;;;;5110368;28;19915;-62
2022/08/17 02:06:40;;;;;;;;;;;29.60;50.60;;;;;;5091253;28;19919;-61
2022/08/17 02:09:06;;;;;;;;;;;29.50;50.70;;;;;;5105719;28;20493;-61
2022/08/17 02:11:32;;;;;;;;;;;29.50;50.50;;;;;;5110519;28;19915;-61
2022/08/17 02:13:58;;;;;;;;;;;29.60;50.80;;;;;;5111570;28;20355;-61
2022/08/17 02:16:23;;;;;;;;;;;29.50;50.30;;;;;;5110812;28;19957;-61
2022/08/17 02:18:48;;;;;;;;;;;29.60;51.40;;;;;;5109747;28;19920;-61
2022/08/17 02:21:14;;;;;;;;;;;29.40;50.90;;;;;;5110375;28;19920;-61
2022/08/17 02:23:41;;;;;;;;;;;29.40;51.00;;;;;;5107327;28;19951;-61
2022/08/17 02:26:06;;;;;;;;;;;29.40;51.00;;;;;;5074998;28;19943;-61
2022/08/17 02:28:32;;;;;;;;;;;29.40;51.10;;;;;;5090273;28;19955;-61
2022/08/17 02:31:02;;;;;;;;;;;29.40;51.00;;;;;;5108373;28;19916;-61
2022/08/17 02:33:28;;;;;;;;;;;29.50;51.00;;;;;;5086337;28;20002;-61
2022/08/17 02:35:53;;;;;;;;;;;29.40;50.80;;;;;;5109672;28;20447;-61
2022/08/17 02:38:19;;;;;;;;;;;29.50;51.00;;;;;;5113793;28;19915;-61
2022/08/17 02:40:44;;;;;;;;;;;29.50;50.90;;;;;;5107882;28;20211;-60
2022/08/17 02:43:10;;;;;;;;;;;29.50;50.80;;;;;;5110284;28;19943;-61
2022/08/17 02:45:35;;;;;;;;;;;29.60;50.90;;;;;;5114151;28;19920;-61
2022/08/17 02:48:01;;;;;;;;;;;29.50;50.90;;;;;;5093000;28;20027;-61
2022/08/17 02:50:26;;;;;;;;;;;29.50;50.80;;;;;;5108304;28;19916;-61
2022/08/17 02:52:52;;;;;;;;;;;29.50;50.90;;;;;;5115233;28;20279;-61
2022/08/17 02:55:21;;;;;;;;;;;29.50;51.00;;;;;;5113693;28;19912;-61
2022/08/17 02:57:47;;;;;;;;;;;29.40;51.00;;;;;;5108791;28;19912;-61
2022/08/17 03:00:15;;;;;;;;;;;29.50;51.10;;;;;;5089428;28;19938;-61
2022/08/17 03:02:41;;;;;;;;;;;29.50;51.00;;;;;;5115605;28;19908;-61
2022/08/17 03:05:07;;;;;;;;;;;29.50;50.90;;;;;;5094649;28;19919;-61
2022/08/17 03:07:33;;;;;;;;;;;29.50;51.10;;;;;;5094080;28;19912;-61
2022/08/17 03:09:58;;;;;;;;;;;29.50;51.00;;;;;;5112979;28;19912;-60
2022/08/17 03:12:23;;;;;;;;;;;29.50;51.00;;;;;;5096657;28;19912;-60
2022/08/17 03:14:49;;;;;;;;;;;29.50;51.00;;;;;;5086851;28;20323;-61
2022/08/17 03:17:14;;;;;;;;;;;29.40;51.00;;;;;;5110412;28;19911;-61
2022/08/17 03:19:40;;;;;;;;;;;29.40;51.10;;;;;;5114598;28;19912;-61
2022/08/17 03:22:06;;;;;;;;;;;29.40;51.20;;;;;;5110649;28;19919;-61
2022/08/17 03:24:31;;;;;;;;;;;29.40;51.20;;;;;;5090027;28;19955;-61
2022/08/17 03:26:57;;;;;;;;;;;29.40;51.20;;;;;;5094868;28;19950;-60
2022/08/17 03:29:22;;;;;;;;;;;29.40;51.30;;;;;;5113894;28;19912;-61
2022/08/17 03:31:48;;;;;;;;;;;29.30;51.20;;;;;;5082104;28;20307;-61
2022/08/17 03:34:13;;;;;;;;;;;29.30;51.30;;;;;;5112064;28;20401;-61
2022/08/17 03:36:39;;;;;;;;;;;29.30;51.30;;;;;;5113219;28;19920;-61
2022/08/17 03:39:04;;;;;;;;;;;29.30;51.30;;;;;;5094426;28;19907;-61
2022/08/17 03:41:30;;;;;;;;;;;29.30;51.30;;;;;;5092824;28;19930;-61
2022/08/17 03:43:55;;;;;;;;;;;29.30;51.30;;;;;;5095909;28;19961;-61
2022/08/17 03:57:17;;;;;;;;;;;29.20;51.30;;;;;;5102634;28;19980;-61
2022/08/17 03:59:43;;;;;;;;;;;29.10;51.50;;;;;;5113419;28;20367;-61
2022/08/17 04:02:10;;;;;;;;;;;29.10;51.60;;;;;;5108230;28;19920;-61
2022/08/17 04:04:35;;;;;;;;;;;29.20;51.60;;;;;;5107434;28;19912;-61
2022/08/17 04:07:01;;;;;;;;;;;29.10;51.60;;;;;;5089219;28;20367;-61
2022/08/17 04:09:26;;;;;;;;;;;29.10;51.60;;;;;;5109886;28;19916;-61
2022/08/17 04:11:52;;;;;;;;;;;29.10;51.90;;;;;;5109447;28;20294;-61
2022/08/17 04:14:18;;;;;;;;;;;29.10;51.60;;;;;;5112520;28;19968;-61
2022/08/17 04:16:44;;;;;;;;;;;29.00;51.90;;;;;;5093718;28;19920;-61
2022/08/17 04:19:09;;;;;;;;;;;29.10;51.70;;;;;;5090450;28;19973;-61
2022/08/17 04:21:34;;;;;;;;;;;29.10;51.80;;;;;;5112822;28;19912;-61
2022/08/17 04:24:00;;;;;;;;;;;29.10;51.80;;;;;;5111297;28;20387;-61
2022/08/17 04:26:27;;;;;;;;;;;29.10;51.80;;;;;;5112378;28;19915;-61
2022/08/17 04:28:52;;;;;;;;;;;29.00;51.90;;;;;;5112683;28;19955;-61
2022/08/17 04:31:18;;;;;;;;;;;29.00;51.90;;;;;;5110679;28;19964;-61
2022/08/17 04:33:43;;;;;;;;;;;29.00;51.90;;;;;;5111085;28;19915;-61
2022/08/17 04:36:09;;;;;;;;;;;29.00;51.90;;;;;;5110034;28;19916;-61
2022/08/17 04:38:36;;;;;;;;;;;29.00;52.00;;;;;;5094376;28;19908;-61
2022/08/17 04:43:46;;;;;;;;;;;29.00;52.00;;;;;;5102904;28;19927;-60
2022/08/17 04:46:13;;;;;;;;;;;28.90;52.00;;;;;;5106842;28;19912;-60
2022/08/17 04:48:39;;;;;;;;;;;28.90;52.20;;;;;;5105710;28;20062;-61
2022/08/17 04:51:08;;;;;;;;;;;28.80;52.10;;;;;;5096039;28;19911;-61
2022/08/17 04:53:33;;;;;;;;;;;28.90;52.10;;;;;;5111727;28;19918;-61
2022/08/17 04:55:59;;;;;;;;;;;28.90;52.10;;;;;;5111585;28;19916;-61
2022/08/17 04:58:24;;;;;;;;;;;28.80;52.20;;;;;;5111113;28;19912;-61
2022/08/17 05:00:50;;;;;;;;;;;28.80;52.30;;;;;;5106255;28;19924;-61
2022/08/17 05:03:15;;;;;;;;;;;28.70;52.30;;;;;;5097652;28;19927;-60
2022/08/17 05:05:48;;;;;;;;;;;28.70;52.50;;;;;;5111082;28;19911;-61
2022/08/17 05:08:14;;;;;;;;;;;28.70;52.60;;;;;;5107837;28;20034;-60
2022/08/17 05:10:39;;;;;;;;;;;28.70;52.60;;;;;;5108500;28;19975;-60
2022/08/17 05:13:06;;;;;;;;;;;28.70;52.60;;;;;;5108390;28;19923;-60
2022/08/17 05:15:32;;;;;;;;;;;28.60;52.60;;;;;;5110702;28;19919;-61
2022/08/17 05:17:57;;;;;;;;;;;28.60;53.40;;;;;;5092316;28;20041;-61
2022/08/17 05:20:23;;;;;;;;;;;28.60;52.90;;;;;;5110275;28;20006;-61
2022/08/17 05:22:49;;;;;;;;;;;28.60;52.80;;;;;;5085325;28;19912;-60
2022/08/17 05:25:19;;;;;;;;;;;28.60;52.80;;;;;;5089150;28;20265;-61
2022/08/17 05:27:44;;;;;;;;;;;28.60;52.90;;;;;;5074401;28;19931;-61
2022/08/17 05:30:10;;;;;;;;;;;28.60;52.90;;;;;;5106846;28;20407;-61
2022/08/17 05:32:36;;;;;;;;;;;28.60;53.00;;;;;;5111566;28;20352;-61
2022/08/17 05:35:02;;;;;;;;;;;28.60;52.90;;;;;;5091602;28;19911;-61
2022/08/17 05:37:28;;;;;;;;;;;28.60;52.90;;;;;;5109258;28;19920;-61
2022/08/17 05:39:53;;;;;;;;;;;28.60;52.80;;;;;;5104841;28;20437;-61
2022/08/17 05:42:19;;;;;;;;;;;28.60;52.90;;;;;;5099423;28;20295;-61
2022/08/17 05:44:44;;;;;;;;;;;28.60;52.80;;;;;;5103498;28;19911;-61
2022/08/17 05:47:09;;;;;;;;;;;28.60;52.80;;;;;;5110071;28;20279;-61
2022/08/17 05:49:35;;;;;;;;;;;28.60;52.60;;;;;;5108835;28;20336;-61
2022/08/17 05:52:03;;;;;;;;;;;28.60;52.80;;;;;;5110055;28;19912;-61
2022/08/17 05:54:44;;;;;;;;;;;28.60;52.90;;;;;;5108363;28;20399;-61
2022/08/17 05:57:28;;;;;;;;;;;28.60;52.90;;;;;;5089913;28;19951;-61
2022/08/17 05:59:57;;;;;;;;;;;28.60;53.00;;;;;;5109221;28;20375;-60
2022/08/17 06:02:41;;;;;;;;;;;28.60;53.00;;;;;;5112007;28;19998;-61
2022/08/17 06:05:10;;;;;;;;;;;28.60;53.10;;;;;;5108980;28;19916;-61
2022/08/17 06:07:42;;;;;;;;;;;28.60;53.10;;;;;;5108193;28;19915;-61
2022/08/17 06:10:11;;;;;;;;;;;28.70;53.00;;;;;;5090609;28;19912;-61
2022/08/17 06:12:51;;;;;;;;;;;28.70;52.70;;;;;;5096082;28;19951;-61
2022/08/17 06:15:30;;;;;;;;;;;28.70;52.70;;;;;;5109945;28;19916;-61
2022/08/17 06:18:00;;;;;;;;;;;28.70;52.80;;;;;;5077463;28;20120;-60
2022/08/17 06:20:26;;;;;;;;;;;28.70;53.00;;;;;;5095453;28;20002;-61
2022/08/17 06:22:54;;;;;;;;;;;28.70;53.10;;;;;;5104915;27;19920;-60
2022/08/17 06:25:31;;;;;;;;;;;28.70;52.90;;;;;;5091698;28;19918;-62
2022/08/17 06:27:57;;;;;;;;;;;28.70;52.90;;;;;;5090557;28;19920;-62
2022/08/17 06:30:24;;;;;;;;;;;28.70;53.20;;;;;;5094659;28;19912;-62
2022/08/17 06:32:50;;;;;;;;;;;28.60;53.40;;;;;;5092836;28;20002;-61
2022/08/17 06:35:17;;;;;;;;;;;28.70;53.30;;;;;;5095107;28;20031;-61
2022/08/17 06:37:51;;;;;;;;;;;28.70;53.20;;;;;;5094381;28;20367;-61
2022/08/17 06:40:23;;;;;;;;;;;28.70;53.10;;;;;;5109780;28;20294;-63
2022/08/17 06:42:51;;;;;;;;;;;28.70;53.40;;;;;;5083291;28;19965;-63
2022/08/17 06:45:19;;;;;;;;;;;28.70;53.40;;;;;;5091913;28;19911;-62
2022/08/17 06:47:59;;;;;;;;;;;28.70;53.40;;;;;;5088435;28;19951;-63
2022/08/17 06:50:35;;;;;;;;;;;28.70;53.40;;;;;;5108762;28;19912;-62
2022/08/17 06:53:10;;;;;;;;;;;28.80;53.30;;;;;;5084654;28;19917;-61
2022/08/17 06:55:43;;;;;;;;;;;28.80;53.20;;;;;;5105766;28;19912;-61
2022/08/17 06:58:08;;;;;;;;;;;28.80;53.30;;;;;;5080280;28;19912;-60
2022/08/17 07:00:39;;;;;;;;;;;28.80;53.20;;;;;;5087046;28;19923;-62
2022/08/17 07:03:10;;;;;;;;;;;28.80;53.30;;;;;;5090544;28;19918;-61
2022/08/17 07:05:36;;;;;;;;;;;28.70;53.60;;;;;;5091033;28;19922;-61
2022/08/17 07:08:10;;;;;;;;;;;28.80;53.70;;;;;;5088244;28;19912;-60
2022/08/17 07:10:54;;;;;;;;;;;28.70;53.70;;;;;;5113651;28;19908;-61
2022/08/17 07:13:24;;;;;;;;;;;28.70;53.60;;;;;;5085784;28;20365;-61
2022/08/17 07:15:50;;;;;;;;;;;28.80;53.50;;;;;;5092926;28;19916;-61
2022/08/17 07:18:16;;;;;;;;;;;28.80;53.60;;;;;;5108074;28;20299;-63
2022/08/17 07:20:42;;;;;;;;;;;28.70;53.50;;;;;;5109516;28;19968;-62
2022/08/17 07:23:10;;;;;;;;;;;28.80;53.70;;;;;;5085670;28;20366;-62
2022/08/17 07:25:36;;;;;;;;;;;28.70;53.80;;;;;;5092151;28;20334;-62
2022/08/17 07:28:02;;;;;;;;;;;28.80;53.60;;;;;;5112705;28;20002;-61
2022/08/17 07:30:29;;;;;;;;;;;28.90;53.50;;;;;;5087245;28;19911;-62
2022/08/17 07:32:59;;;;;;;;;;;28.80;53.40;;;;;;5093739;28;19912;-61
2022/08/17 07:35:27;;;;;;;;;;;28.80;53.70;;;;;;5107585;28;19955;-61
2022/08/17 07:38:12;;;;;;;;;;;28.70;53.80;;;;;;5093525;28;19912;-60
2022/08/17 07:40:39;;;;;;;;;;;28.70;53.80;;;;;;5111082;28;19916;-60
2022/08/17 07:43:10;;;;;;;;;;;28.70;54.00;;;;;;5107555;28;19978;-62
2022/08/17 07:48:35;;;;;;;;;;;28.70;54.00;;;;;;5057932;28;20042;-62
2022/08/17 07:51:02;;;;;;;;;;;28.80;53.80;;;;;;5084006;28;20438;-62
2022/08/17 07:53:27;;;;;;;;;;;28.90;53.70;;;;;;5076310;28;20043;-61
2022/08/17 07:55:53;;;;;;;;;;;28.90;53.50;;;;;;5108767;28;20056;-62
2022/08/17 07:58:19;;;;;;;;;;;29.00;53.60;;;;;;5110637;28;20315;-63
2022/08/17 08:00:45;;;;;;;;;;;29.00;53.50;;;;;;5107412;28;19916;-63
2022/08/17 08:03:15;;;;;;;;;;;29.00;53.70;;;;;;5105642;28;20279;-63
2022/08/17 08:05:48;;;;;;;;;;;28.90;54.00;;;;;;5092262;28;20367;-62
2022/08/17 08:08:19;;;;;;;;;;;28.90;54.10;;;;;;5107057;28;19996;-62
2022/08/17 08:10:44;;;;;;;;;;;28.80;54.30;;;;;;5092315;28;19968;-63
2022/08/17 08:13:15;;;;;;;;;;;28.70;54.20;;;;;;5081454;28;19920;-62
2022/08/17 08:15:42;;;;;;;;;;;28.70;54.30;;;;;;5106003;28;19912;-62
2022/08/17 08:18:21;;;;;;;;;;;28.70;54.20;;;;;;5111190;28;20482;-62
2022/08/17 08:20:50;;;;;;;;;;;28.80;54.10;;;;;;5108591;28;19924;-63
2022/08/17 08:23:33;;;;;;;;;;;28.80;53.90;;;;;;5110999;28;19912;-63
2022/08/17 08:26:09;;;;;;;;;;;28.90;53.40;;;;;;5110843;28;19930;-62
2022/08/17 08:28:50;;;;;;;;;;;29.00;53.40;;;;;;5111704;28;20402;-61
2022/08/17 08:31:26;;;;;;;;;;;28.90;52.90;;;;;;5093943;28;19915;-62
2022/08/17 08:34:03;;;;;;;;;;;29.00;52.80;;;;;;5090494;28;20007;-63
2022/08/17 08:36:41;;;;;;;;;;;28.90;52.80;;;;;;5108351;28;19915;-63
2022/08/17 08:39:11;;;;;;;;;;;29.00;52.70;;;;;;5094682;28;19916;-62
2022/08/17 08:41:47;;;;;;;;;;;29.00;52.80;;;;;;5087521;28;19916;-62
2022/08/17 08:44:13;;;;;;;;;;;29.10;53.00;;;;;;5105584;27;19915;-63
2022/08/17 08:46:39;;;;;;;;;;;29.00;53.00;;;;;;5102582;28;19919;-61
2022/08/17 08:49:15;;;;;;;;;;;29.10;52.20;;;;;;5108716;28;20264;-62
2022/08/17 08:51:51;;;;;;;;;;;29.10;52.60;;;;;;5108627;28;20362;-63
2022/08/17 08:54:25;;;;;;;;;;;29.00;52.30;;;;;;5107635;28;19923;-62
2022/08/17 08:57:00;;;;;;;;;;;29.10;52.20;;;;;;5095645;28;20326;-62
2022/08/17 08:59:29;;;;;;;;;;;29.20;52.00;;;;;;5110426;28;20295;-63
2022/08/17 09:01:58;;;;;;;;;;;29.20;51.90;;;;;;5111136;28;20296;-63
2022/08/17 09:04:24;;;;;;;;;;;29.30;52.00;;;;;;5087646;28;19998;-63
2022/08/17 09:06:56;;;;;;;;;;;29.30;51.30;;;;;;5110261;28;20435;-63
2022/08/17 09:09:25;;;;;;;;;;;29.40;51.60;;;;;;5090718;28;19949;-63
2022/08/17 09:12:03;;;;;;;;;;;29.30;51.10;;;;;;5111363;28;19998;-63
2022/08/17 09:14:36;;;;;;;;;;;29.30;50.90;;;;;;5090437;28;20014;-63
2022/08/17 09:17:11;;;;;;;;;;;29.40;51.70;;;;;;5089114;28;20445;-63
2022/08/17 09:19:38;;;;;;;;;;;29.40;51.00;;;;;;5112581;27;20002;-63
2022/08/17 09:22:22;;;;;;;;;;;29.50;51.10;;;;;;5091736;28;19912;-63
2022/08/17 09:24:49;;;;;;;;;;;29.50;51.00;;;;;;5107167;28;20383;-63
2022/08/17 09:27:17;;;;;;;;;;;29.50;51.10;;;;;;5107496;28;19920;-64
2022/08/17 09:29:50;;;;;;;;;;;29.60;51.10;;;;;;5070372;28;19966;-63
2022/08/17 09:32:20;;;;;;;;;;;29.60;50.50;;;;;;5091146;28;20006;-61
2022/08/17 09:34:49;;;;;;;;;;;29.70;50.20;;;;;;5109229;28;19918;-62
2022/08/17 09:37:26;;;;;;;;;;;29.60;50.60;;;;;;5111376;28;19980;-63
2022/08/17 09:40:10;;;;;;;;;;;29.60;50.80;;;;;;5088561;28;19919;-63
2022/08/17 09:42:53;;;;;;;;;;;29.70;50.90;;;;;;5108155;28;20367;-64
2022/08/17 09:45:37;;;;;;;;;;;29.70;50.80;;;;;;5090416;28;19912;-63
2022/08/17 09:48:08;;;;;;;;;;;29.60;50.80;;;;;;5104166;28;19912;-63
2022/08/17 09:50:42;;;;;;;;;;;29.70;51.00;;;;;;5108729;28;19915;-64
2022/08/17 09:53:08;;;;;;;;;;;29.70;50.80;;;;;;5091440;28;19941;-63
2022/08/17 09:55:48;;;;;;;;;;;29.80;50.20;;;;;;5078570;28;19912;-62
2022/08/17 09:58:17;;;;;;;;;;;29.80;50.10;;;;;;5096248;28;19916;-62
2022/08/17 10:00:45;;;;;;;;;;;29.80;50.50;;;;;;5089345;28;19916;-63
2022/08/17 10:03:18;;;;;;;;;;;29.70;50.40;;;;;;5111676;28;19963;-63
2022/08/17 10:05:45;;;;;;;;;;;29.70;50.20;;;;;;5110118;28;19911;-62
2022/08/17 10:08:30;;;;;;;;;;;29.80;49.60;;;;;;5091851;28;19916;-63
2022/08/17 10:10:57;;;;;;;;;;;29.90;49.80;;;;;;5108818;28;19915;-63
2022/08/17 10:13:32;;;;;;;;;;;29.80;50.40;;;;;;5108326;28;19930;-62
2022/08/17 10:16:17;;;;;;;;;;;29.80;50.20;;;;;;5104456;28;19994;-63
2022/08/17 10:18:42;;;;;;;;;;;29.90;50.00;;;;;;5110635;28;19965;-63
2022/08/17 10:26:50;;;;;;;;;;;30.00;49.60;;;;;;5095564;28;19957;-65
2022/08/17 10:29:20;;;;;;;;;;;30.10;49.80;;;;;;5104110;28;19915;-64
2022/08/17 10:31:54;;;;;;;;;;;30.10;49.00;;;;;;5103846;28;19908;-63
2022/08/17 10:34:27;;;;;;;;;;;30.10;48.70;;;;;;5106383;28;19915;-63
2022/08/17 10:36:53;;;;;;;;;;;30.00;48.70;;;;;;5092609;28;19912;-63
2022/08/17 10:39:26;;;;;;;;;;;29.80;48.90;;;;;;5104602;28;19947;-63
2022/08/17 10:41:52;;;;;;;;;;;29.80;49.20;;;;;;5100245;28;19912;-63
2022/08/17 10:44:22;;;;;;;;;;;29.80;49.10;;;;;;5088851;28;19911;-63
2022/08/17 10:46:54;;;;;;;;;;;29.80;49.00;;;;;;5104775;28;19976;-64
2022/08/17 10:49:19;;;;;;;;;;;29.80;48.70;;;;;;5105656;28;19916;-63
2022/08/17 10:52:08;;;;;;;;;;;29.80;48.60;;;;;;5106142;28;19919;-63
2022/08/17 10:54:44;;;;;;;;;;;29.80;48.60;;;;;;5067991;28;19911;-62
2022/08/17 10:57:28;;;;;;;;;;;29.80;48.00;;;;;;5081526;28;19920;-63
2022/08/17 10:59:57;;;;;;;;;;;29.80;48.00;;;;;;5098252;28;19915;-64
2022/08/17 11:02:24;;;;;;;;;;;29.80;47.80;;;;;;5104533;28;19915;-63
2022/08/17 11:04:53;;;;;;;;;;;29.80;47.90;;;;;;5092433;28;19919;-64
2022/08/17 11:07:24;;;;;;;;;;;29.80;47.50;;;;;;5109803;28;19967;-64
2022/08/17 11:09:54;;;;;;;;;;;29.80;47.70;;;;;;5090190;28;19922;-64
2022/08/17 11:12:36;;;;;;;;;;;29.80;47.40;;;;;;5088639;28;19927;-64
2022/08/17 11:15:11;;;;;;;;;;;29.80;47.50;;;;;;5086992;28;19932;-63
2022/08/17 11:17:49;;;;;;;;;;;29.80;47.50;;;;;;5105157;28;20116;-62
2022/08/17 11:20:33;;;;;;;;;;;29.90;47.10;;;;;;5089375;28;19920;-63
2022/08/17 11:23:17;;;;;;;;;;;29.90;46.70;;;;;;5104959;28;19973;-63
2022/08/17 11:26:02;;;;;;;;;;;29.90;46.40;;;;;;5106775;28;19926;-65
2022/08/17 11:28:34;;;;;;;;;;;29.90;47.00;;;;;;5092672;28;19951;-62
2022/08/17 11:31:07;;;;;;;;;;;29.90;46.60;;;;;;5093356;28;20069;-64
2022/08/17 11:33:35;;;;;;;;;;;29.90;46.70;;;;;;5094606;28;19912;-63
2022/08/17 11:36:13;;;;;;;;;;;29.90;46.80;;;;;;5110281;28;19912;-62
2022/08/17 11:38:45;;;;;;;;;;;29.90;46.70;;;;;;5106634;28;19912;-64
2022/08/17 11:41:19;;;;;;;;;;;29.90;46.60;;;;;;5113857;28;20406;-63
2022/08/17 11:43:52;;;;;;;;;;;29.90;46.70;;;;;;5088160;28;20056;-64
2022/08/17 11:46:20;;;;;;;;;;;29.80;46.80;;;;;;5110109;28;20053;-65
2022/08/17 11:51:53;;;;;;;;;;;29.90;46.70;;;;;;5112678;28;19953;-64
2022/08/17 11:54:37;;;;;;;;;;;29.90;46.80;;;;;;5104708;28;19934;-64
2022/08/17 11:57:26;;;;;;;;;;;30.00;46.70;;;;;;5111110;28;20002;-65
2022/08/17 12:00:07;;;;;;;;;;;30.00;46.90;;;;;;5095091;28;19919;-65
2022/08/17 12:02:34;;;;;;;;;;;29.90;46.90;;;;;;5088242;28;19923;-64
2022/08/17 12:05:24;;;;;;;;;;;29.90;47.10;;;;;;5087142;28;19915;-64
2022/08/17 12:07:50;;;;;;;;;;;29.90;47.00;;;;;;5088840;28;19912;-64
2022/08/17 12:10:20;;;;;;;;;;;29.80;47.10;;;;;;5108243;28;19920;-64
2022/08/17 12:12:45;;;;;;;;;;;29.80;47.00;;;;;;5090717;28;19969;-64
2022/08/17 12:15:17;;;;;;;;;;;29.90;46.70;;;;;;5110519;28;19920;-64
2022/08/17 12:17:50;;;;;;;;;;;30.00;46.70;;;;;;5089337;28;19995;-64
2022/08/17 12:20:20;;;;;;;;;;;30.20;46.60;;;;;;5092274;28;19912;-64
2022/08/17 12:22:53;;;;;;;;;;;30.20;45.90;;;;;;5110594;28;21583;-64
2022/08/17 12:25:20;;;;;;;;;;;30.30;46.10;;;;;;5097483;28;19916;-64
2022/08/17 12:27:46;;;;;;;;;;;30.20;46.10;;;;;;5084117;28;19912;-63
2022/08/17 12:30:12;;;;;;;;;;;30.30;46.00;;;;;;5109549;28;20011;-64
2022/08/17 12:32:39;;;;;;;;;;;30.20;45.50;;;;;;5091378;28;19918;-63
2022/08/17 12:35:05;;;;;;;;;;;30.30;45.10;;;;;;5107695;28;19916;-63
2022/08/17 12:37:31;;;;;;;;;;;30.20;45.00;;;;;;5091437;28;19916;-65
2022/08/17 12:39:58;;;;;;;;;;;30.20;45.00;;;;;;5107755;28;19998;-64
2022/08/17 12:42:25;;;;;;;;;;;30.20;45.30;;;;;;5091900;28;20451;-63
2022/08/17 12:44:50;;;;;;;;;;;30.20;46.10;;;;;;5086112;28;19908;-64
2022/08/17 12:47:16;;;;;;;;;;;30.20;45.10;;;;;;5094130;28;19914;-64
2022/08/17 12:49:42;;;;;;;;;;;30.10;44.90;;;;;;5109962;28;19912;-68
2022/08/17 12:52:12;;;;;;;;;;;30.10;45.10;;;;;;5093602;28;19912;-62
2022/08/17 12:54:37;;;;;;;;;;;30.00;44.90;;;;;;5102543;28;19911;-65
2022/08/17 12:57:05;;;;;;;;;;;30.00;45.00;;;;;;5104687;28;20261;-64
2022/08/17 12:59:31;;;;;;;;;;;30.00;45.00;;;;;;5102431;28;20875;-64
2022/08/17 13:01:57;;;;;;;;;;;30.00;45.00;;;;;;5103600;27;20023;-64
2022/08/17 13:04:23;;;;;;;;;;;30.00;45.10;;;;;;5072583;28;19934;-64
2022/08/17 13:06:50;;;;;;;;;;;30.00;45.30;;;;;;5093211;28;19916;-64
2022/08/17 13:09:20;;;;;;;;;;;30.00;45.40;;;;;;5110026;28;20371;-64
2022/08/17 13:11:49;;;;;;;;;;;29.90;45.30;;;;;;5075734;28;19908;-63
2022/08/17 13:14:17;;;;;;;;;;;30.00;45.30;;;;;;5109620;28;19930;-64
2022/08/17 13:16:47;;;;;;;;;;;30.10;45.20;;;;;;5106107;28;19912;-64
2022/08/17 13:19:20;;;;;;;;;;;30.10;45.20;;;;;;5087462;28;19993;-64
2022/08/17 13:21:50;;;;;;;;;;;30.10;45.30;;;;;;5113659;28;20326;-64
2022/08/17 13:24:35;;;;;;;;;;;30.10;45.70;;;;;;5092313;28;19911;-63
2022/08/17 13:27:01;;;;;;;;;;;30.00;45.50;;;;;;5111453;28;20435;-63
2022/08/17 13:29:33;;;;;;;;;;;29.90;45.60;;;;;;5111281;28;19945;-63
2022/08/17 13:32:02;;;;;;;;;;;29.90;45.60;;;;;;5091938;28;19916;-63
2022/08/17 13:34:27;;;;;;;;;;;30.00;45.50;;;;;;5110053;28;19981;-64
2022/08/17 13:37:12;;;;;;;;;;;30.00;45.70;;;;;;5108585;28;20375;-63
2022/08/17 13:39:41;;;;;;;;;;;30.10;45.70;;;;;;5087367;28;19938;-63
2022/08/17 13:42:25;;;;;;;;;;;30.00;45.60;;;;;;5090683;28;19920;-63
2022/08/17 13:44:51;;;;;;;;;;;29.90;45.90;;;;;;5109300;28;19920;-63
2022/08/17 13:47:17;;;;;;;;;;;29.90;45.80;;;;;;5108928;28;20280;-63
2022/08/17 13:49:42;;;;;;;;;;;30.00;45.90;;;;;;5089631;28;19912;-63
2022/08/17 13:52:11;;;;;;;;;;;30.10;45.90;;;;;;5109108;28;19968;-64
2022/08/17 13:54:37;;;;;;;;;;;30.10;45.70;;;;;;5083442;28;19916;-62
2022/08/17 13:57:06;;;;;;;;;;;30.10;45.50;;;;;;5107592;28;19919;-63
2022/08/17 13:59:39;;;;;;;;;;;30.10;45.70;;;;;;5091579;28;19966;-63
2022/08/17 14:02:05;;;;;;;;;;;30.20;45.70;;;;;;5090491;28;19964;-64
2022/08/17 14:04:30;;;;;;;;;;;30.20;45.40;;;;;;5105993;28;19912;-64
2022/08/17 14:07:20;;;;;;;;;;;30.20;45.60;;;;;;5088075;28;20458;-61
2022/08/17 14:09:45;;;;;;;;;;;30.20;45.30;;;;;;5089719;28;19912;-62
2022/08/17 14:12:11;;;;;;;;;;;30.20;45.40;;;;;;5106260;28;19912;-63
2022/08/17 14:14:37;;;;;;;;;;;30.20;45.50;;;;;;5071769;28;19989;-64
2022/08/17 14:17:03;;;;;;;;;;;30.20;45.50;;;;;;5083985;28;20335;-63
2022/08/17 14:19:28;;;;;;;;;;;30.20;45.60;;;;;;5089161;28;19912;-62
2022/08/17 14:21:57;;;;;;;;;;;30.30;45.60;;;;;;5088306;28;19974;-63
2022/08/17 14:24:27;;;;;;;;;;;30.30;45.80;;;;;;5087674;28;20363;-63
2022/08/17 14:26:53;;;;;;;;;;;30.30;45.70;;;;;;5089730;28;19912;-63
2022/08/17 14:29:19;;;;;;;;;;;30.30;45.60;;;;;;5088649;28;19965;-64
2022/08/17 14:31:45;;;;;;;;;;;30.40;45.60;;;;;;5085289;28;19916;-63
2022/08/17 14:34:10;;;;;;;;;;;30.40;45.60;;;;;;5092012;28;19916;-62
2022/08/17 14:36:36;;;;;;;;;;;30.40;45.50;;;;;;5093769;28;20292;-63
2022/08/17 14:39:02;;;;;;;;;;;30.40;45.50;;;;;;5074062;28;20029;-63
2022/08/17 14:41:28;;;;;;;;;;;30.40;45.60;;;;;;5094563;28;19947;-63
2022/08/17 14:43:53;;;;;;;;;;;30.40;45.50;;;;;;5083838;28;20342;-63
2022/08/17 14:46:19;;;;;;;;;;;30.40;45.70;;;;;;5087465;28;19927;-64
2022/08/17 14:48:44;;;;;;;;;;;30.40;45.80;;;;;;5071960;28;20364;-63
2022/08/17 14:51:10;;;;;;;;;;;30.40;45.70;;;;;;5090245;28;20302;-63
2022/08/17 14:53:36;;;;;;;;;;;30.40;45.70;;;;;;5088621;28;19920;-64